createdAt,value
2018-06-23T00:00:54.334Z,9.73
2018-06-23T00:03:22.389Z,16.77
2018-06-23T00:05:50.456Z,15.90
2018-06-23T00:08:18.514Z,19.90
2018-06-23T00:10:46.599Z,15.23
2018-06-23T00:13:14.667Z,16.10
2018-06-23T00:15:42.883Z,10.00
2018-06-23T00:18:10.969Z,15.63
2018-06-23T00:20:39.088Z,20.33
2018-06-23T00:23:07.348Z,20.03
2018-06-23T00:25:40.837Z,20.03
2018-06-23T00:28:08.925Z,18.13
2018-06-23T00:30:37.025Z,22.13
2018-06-23T00:33:05.139Z,15.67
2018-06-23T00:35:33.368Z,21.63
2018-06-23T00:38:01.743Z,16.57
2018-06-23T00:40:29.812Z,19.53
2018-06-23T00:42:57.928Z,24.00
2018-06-23T00:45:26.004Z,20.43
2018-06-23T00:47:54.284Z,23.80
2018-06-23T00:50:22.349Z,22.50
2018-06-23T00:52:50.420Z,24.57
2018-06-23T00:55:18.489Z,19.87
2018-06-23T00:57:46.568Z,20.50
2018-06-23T01:00:14.663Z,18.17
2018-06-23T01:02:42.944Z,22.57
2018-06-23T01:05:11.080Z,19.23
2018-06-23T01:07:39.131Z,30.50
2018-06-23T01:10:07.732Z,25.73
2018-06-23T01:12:35.818Z,22.93
2018-06-23T01:15:03.875Z,29.53
2018-06-23T01:17:31.949Z,26.00
2018-06-23T01:20:00.028Z,31.63
2018-06-23T01:22:28.089Z,28.97
2018-06-23T01:24:56.168Z,21.87
2018-06-23T01:27:24.264Z,24.40
2018-06-23T01:29:52.322Z,20.47
2018-06-23T01:32:20.397Z,21.27
2018-06-23T01:34:48.463Z,23.00
2018-06-23T01:37:16.510Z,22.60
2018-06-23T01:39:44.658Z,27.30
2018-06-23T01:42:12.698Z,31.03
2018-06-23T01:44:40.754Z,21.30
2018-06-23T01:47:08.796Z,25.47
2018-06-23T01:49:36.904Z,24.47
2018-06-23T01:52:05.062Z,22.47
2018-06-23T01:54:33.152Z,19.63
2018-06-23T01:57:01.229Z,25.10
2018-06-23T01:59:29.380Z,24.40
2018-06-23T02:01:57.435Z,26.53
2018-06-23T02:04:25.512Z,22.83
2018-06-23T02:06:53.588Z,27.77
2018-06-23T02:09:21.636Z,18.07
2018-06-23T02:11:49.711Z,24.93
2018-06-23T02:14:23.111Z,20.07
2018-06-23T02:16:56.680Z,19.37
2018-06-23T02:19:30.152Z,21.17
2018-06-23T02:22:03.557Z,22.23
2018-06-23T02:24:36.885Z,17.67
2018-06-23T02:27:10.180Z,17.17
2018-06-23T02:29:43.706Z,23.07
2018-06-23T02:32:17.280Z,27.80
2018-06-23T02:34:50.604Z,19.80
2018-06-23T02:37:18.671Z,17.23
2018-06-23T02:39:46.711Z,28.20
2018-06-23T02:42:14.784Z,17.40
2018-06-23T02:44:42.821Z,21.77
2018-06-23T02:47:10.894Z,16.37
2018-06-23T02:49:39.128Z,27.17
2018-06-23T02:52:07.231Z,18.57
2018-06-23T02:54:35.409Z,23.00
2018-06-23T02:57:03.743Z,31.60
2018-06-23T02:59:31.847Z,19.40
2018-06-23T03:01:59.934Z,23.07
2018-06-23T03:04:28.017Z,25.20
2018-06-23T03:06:56.074Z,20.67
2018-06-23T03:09:24.132Z,21.73
2018-06-23T03:11:52.183Z,21.00
2018-06-23T03:14:20.231Z,25.43
2018-06-23T03:16:48.284Z,23.07
2018-06-23T03:19:16.349Z,26.40
2018-06-23T03:21:44.468Z,22.03
2018-06-23T03:24:12.556Z,22.07
2018-06-23T03:26:40.635Z,21.93
2018-06-23T03:29:08.769Z,23.00
2018-06-23T03:31:36.929Z,25.87
2018-06-23T03:34:05.108Z,22.87
2018-06-23T03:36:33.188Z,18.83
2018-06-23T03:39:01.256Z,24.23
2018-06-23T03:41:29.296Z,23.30
2018-06-23T03:43:57.348Z,22.80
2018-06-23T03:46:25.415Z,24.23
2018-06-23T03:48:53.488Z,21.33
2018-06-23T03:51:21.523Z,23.87
2018-06-23T03:53:49.593Z,23.37
2018-06-23T03:56:17.633Z,20.17
2018-06-23T03:58:45.721Z,20.10
2018-06-23T04:01:13.764Z,19.97
2018-06-23T04:03:41.839Z,21.93
2018-06-23T04:06:09.915Z,21.93
2018-06-23T04:08:37.972Z,26.40
2018-06-23T04:11:06.049Z,20.07
2018-06-23T04:13:34.116Z,23.90
2018-06-23T04:16:02.182Z,23.70
2018-06-23T04:18:30.280Z,20.67
2018-06-23T04:20:58.327Z,22.70
2018-06-23T04:23:26.376Z,21.07
2018-06-23T04:25:54.411Z,20.53
2018-06-23T04:28:22.489Z,22.87
2018-06-23T04:30:50.563Z,27.63
2018-06-23T04:33:18.624Z,17.77
2018-06-23T04:35:46.677Z,15.60
2018-06-23T04:38:14.734Z,17.43
2018-06-23T04:40:42.931Z,17.73
2018-06-23T04:43:11.011Z,15.20
2018-06-23T04:45:39.126Z,18.50
2018-06-23T04:48:07.236Z,16.23
2018-06-23T04:50:35.280Z,16.57
2018-06-23T04:53:03.351Z,19.47
2018-06-23T04:55:31.399Z,24.27
2018-06-23T04:57:59.510Z,15.90
2018-06-23T05:00:27.581Z,21.60
2018-06-23T05:02:56.744Z,21.03
2018-06-23T05:05:25.431Z,15.73
2018-06-23T05:07:53.527Z,20.23
2018-06-23T05:10:21.583Z,16.23
2018-06-23T05:12:49.901Z,16.87
2018-06-23T05:15:17.971Z,13.80
2018-06-23T05:17:46.192Z,17.83
2018-06-23T05:20:14.503Z,16.60
2018-06-23T05:22:42.546Z,20.17
2018-06-23T05:25:10.643Z,14.60
2018-06-23T05:27:38.762Z,22.13
2018-06-23T05:30:06.929Z,21.87
2018-06-23T05:32:35.044Z,17.80
2018-06-23T05:35:03.796Z,15.50
2018-06-23T05:37:32.264Z,19.27
2018-06-23T05:40:00.764Z,17.80
2018-06-23T05:42:28.837Z,18.60
2018-06-23T05:44:56.900Z,17.33
2018-06-23T05:47:25.128Z,12.17
2018-06-23T05:49:53.421Z,20.67
2018-06-23T05:52:22.000Z,17.90
2018-06-23T05:54:50.084Z,17.17
2018-06-23T05:57:18.216Z,12.97
2018-06-23T05:59:46.303Z,18.43
2018-06-23T06:02:15.116Z,11.00
2018-06-23T06:04:43.488Z,13.40
2018-06-23T06:07:11.827Z,12.53
2018-06-23T06:09:39.799Z,19.80
2018-06-23T06:12:07.872Z,12.47
2018-06-23T06:14:35.927Z,10.43
2018-06-23T06:17:36.360Z,12.60
2018-06-23T06:20:06.692Z,15.93
2018-06-23T06:22:37.041Z,11.27
2018-06-23T06:25:05.600Z,13.00
2018-06-23T06:27:33.687Z,12.13
2018-06-23T06:30:01.983Z,10.80
2018-06-23T06:32:30.355Z,10.80
2018-06-23T06:34:59.143Z,11.73
2018-06-23T06:37:27.197Z,12.23
2018-06-23T06:39:55.246Z,10.93
2018-06-23T06:42:23.311Z,10.90
2018-06-23T06:44:51.354Z,10.67
2018-06-23T06:47:20.207Z,8.13
2018-06-23T06:49:48.604Z,9.27
2018-06-23T06:52:16.783Z,8.87
2018-06-23T06:54:45.183Z,9.00
2018-06-23T06:57:13.394Z,8.70
2018-06-23T06:59:41.532Z,11.20
2018-06-23T07:02:09.825Z,9.97
2018-06-23T07:04:38.037Z,6.73
2018-06-23T07:07:06.163Z,8.73
2018-06-23T07:09:34.288Z,7.93
2018-06-23T07:12:02.363Z,8.60
2018-06-23T07:14:30.416Z,10.93
2018-06-23T07:16:58.910Z,11.97
2018-06-23T07:19:26.989Z,14.93
2018-06-23T07:21:55.059Z,10.73
2018-06-23T07:24:23.415Z,13.93
2018-06-23T07:26:51.496Z,11.33
2018-06-23T07:29:19.520Z,13.40
2018-06-23T07:31:47.641Z,12.03
2018-06-23T07:34:15.776Z,11.17
2018-06-23T07:36:43.841Z,12.90
2018-06-23T07:39:12.144Z,13.20
2018-06-23T07:41:40.431Z,10.67
2018-06-23T07:44:09.219Z,11.73
2018-06-23T07:46:37.335Z,12.90
2018-06-23T07:49:05.605Z,14.03
2018-06-23T07:51:33.801Z,12.27
2018-06-23T07:54:01.844Z,11.37
2018-06-23T07:56:29.900Z,10.60
2018-06-23T07:58:57.949Z,14.97
2018-06-23T08:01:26.111Z,12.70
2018-06-23T08:03:54.198Z,14.97
2018-06-23T08:06:22.248Z,12.50
2018-06-23T08:08:50.338Z,14.73
2018-06-23T08:11:18.391Z,12.20
2018-06-23T08:13:46.448Z,16.13
2018-06-23T08:16:14.543Z,14.53
2018-06-23T08:18:43.024Z,14.77
2018-06-23T08:21:11.121Z,15.23
2018-06-23T08:23:39.265Z,15.83
2018-06-23T08:26:07.494Z,12.27
2018-06-23T08:28:36.228Z,14.80
2018-06-23T08:31:05.108Z,14.03
2018-06-23T08:33:33.167Z,14.00
2018-06-23T08:36:01.331Z,16.83
2018-06-23T08:38:29.531Z,13.93
2018-06-23T08:40:57.612Z,16.33
2018-06-23T08:43:25.696Z,11.67
2018-06-23T08:45:53.991Z,23.37
2018-06-23T08:48:22.055Z,14.07
2018-06-23T08:50:50.111Z,21.27
2018-06-23T08:53:18.187Z,13.40
2018-06-23T08:55:46.243Z,15.70
2018-06-23T08:58:14.318Z,12.27
2018-06-23T09:00:42.365Z,12.05
2018-06-23T09:03:10.432Z,15.07
2018-06-23T09:05:38.489Z,14.05
2018-06-23T09:08:06.581Z,13.85
2018-06-23T09:10:34.687Z,9.73
2018-06-23T09:13:02.835Z,13.13
2018-06-23T09:15:30.920Z,12.18
2018-06-23T09:17:59.078Z,14.28
2018-06-23T09:20:27.301Z,14.00
2018-06-23T09:22:55.359Z,12.88
2018-06-23T09:25:23.405Z,12.20
2018-06-23T09:27:51.462Z,11.88
2018-06-23T09:30:19.508Z,15.98
2018-06-23T09:32:47.576Z,13.28
2018-06-23T09:35:15.649Z,14.20
2018-06-23T09:37:43.788Z,8.13
2018-06-23T09:40:11.971Z,11.55
2018-06-23T09:42:40.111Z,13.77
2018-06-23T09:45:08.356Z,16.30
2018-06-23T09:47:36.645Z,13.67
2018-06-23T09:50:04.721Z,14.03
2018-06-23T09:52:33.272Z,14.03
2018-06-23T09:55:01.348Z,13.07
2018-06-23T09:57:29.383Z,17.93
2018-06-23T09:59:57.474Z,14.63
2018-06-23T10:02:25.689Z,10.70
2018-06-23T10:04:53.771Z,15.03
2018-06-23T10:07:22.306Z,19.80
2018-06-23T10:09:58.286Z,12.27
2018-06-23T10:12:27.980Z,14.53
2018-06-23T10:14:56.542Z,13.08
2018-06-23T10:17:26.123Z,9.65
2018-06-23T10:19:54.471Z,13.30
2018-06-23T10:22:23.101Z,11.15
2018-06-23T10:24:51.406Z,10.72
2018-06-23T10:27:19.823Z,14.60
2018-06-23T10:29:48.177Z,11.43
2018-06-23T10:32:17.818Z,12.55
2018-06-23T10:34:47.261Z,15.93
2018-06-23T10:37:16.197Z,15.80
2018-06-23T10:39:46.042Z,14.38
2018-06-23T10:42:15.828Z,11.88
2018-06-23T10:44:43.990Z,16.83
2018-06-23T10:47:12.620Z,13.53
2018-06-23T10:49:41.528Z,11.60
2018-06-23T10:52:09.568Z,15.40
2018-06-23T10:54:40.020Z,12.17
2018-06-23T10:57:08.555Z,10.20
2018-06-23T10:59:36.722Z,15.77
2018-06-23T11:02:04.763Z,10.57
2018-06-23T11:04:32.913Z,12.10
2018-06-23T11:07:04.488Z,10.77
2018-06-23T11:09:35.362Z,7.60
2018-06-23T11:12:03.604Z,11.33
2018-06-23T11:14:32.094Z,13.27
2018-06-23T11:17:00.180Z,11.50
2018-06-23T11:19:28.313Z,9.03
2018-06-23T11:21:56.566Z,12.13
2018-06-23T11:24:24.641Z,9.93
2018-06-23T11:26:52.780Z,8.65
2018-06-23T11:29:20.863Z,10.60
2018-06-23T11:31:49.002Z,9.20
2018-06-23T11:34:17.096Z,8.25
2018-06-23T11:36:45.215Z,11.43
2018-06-23T11:39:13.338Z,10.88
2018-06-23T11:41:41.471Z,12.63
2018-06-23T11:44:09.802Z,7.35
2018-06-23T11:46:37.930Z,11.20
2018-06-23T11:49:05.980Z,8.85
2018-06-23T11:51:34.089Z,11.83
2018-06-23T11:54:02.200Z,12.43
2018-06-23T11:56:30.483Z,8.93
2018-06-23T11:58:58.573Z,11.53
2018-06-23T12:01:26.635Z,13.43
2018-06-23T12:03:54.992Z,8.45
2018-06-23T12:06:24.928Z,11.83
2018-06-23T12:08:53.303Z,7.80
2018-06-23T12:11:22.544Z,9.13
2018-06-23T12:13:50.663Z,9.78
2018-06-23T12:16:22.362Z,11.85
2018-06-23T12:18:50.677Z,9.25
2018-06-23T12:21:18.757Z,12.75
2018-06-23T12:23:47.128Z,8.05
2018-06-23T12:26:16.661Z,11.65
2018-06-23T12:28:45.518Z,9.73
2018-06-23T12:31:15.184Z,10.70
2018-06-23T12:33:43.306Z,8.73
2018-06-23T12:36:13.340Z,12.00
2018-06-23T12:38:42.242Z,8.63
2018-06-23T12:41:12.434Z,7.92
2018-06-23T12:43:40.586Z,11.10
2018-06-23T12:46:08.687Z,9.83
2018-06-23T12:48:36.883Z,9.63
2018-06-23T12:51:13.415Z,10.53
2018-06-23T12:53:44.076Z,10.55
2018-06-23T12:56:13.546Z,11.33
2018-06-23T12:58:42.878Z,8.75
2018-06-23T13:01:13.438Z,11.30
2018-06-23T13:03:44.202Z,11.93
2018-06-23T13:06:12.494Z,9.68
2018-06-23T13:08:47.687Z,9.73
2018-06-23T13:11:17.706Z,6.78
2018-06-23T13:13:47.873Z,6.83
2018-06-23T13:16:17.764Z,8.50
2018-06-23T13:18:48.340Z,7.75
2018-06-23T13:21:17.740Z,7.72
2018-06-23T13:23:48.201Z,7.00
2018-06-23T13:26:17.922Z,7.03
2018-06-23T13:28:47.135Z,9.70
2018-06-23T13:31:16.723Z,8.43
2018-06-23T13:33:46.649Z,10.30
2018-06-23T13:36:14.932Z,9.10
2018-06-23T13:38:48.981Z,8.63
2018-06-23T13:41:17.961Z,9.78
2018-06-23T13:43:47.752Z,9.38
2018-06-23T13:46:20.168Z,9.93
2018-06-23T13:48:49.388Z,13.22
2018-06-23T13:51:19.496Z,10.28
2018-06-23T13:53:47.732Z,12.77
2018-06-23T13:56:15.857Z,8.28
2018-06-23T13:58:44.114Z,7.08
2018-06-23T14:01:13.187Z,6.80
2018-06-23T14:03:41.416Z,5.87
2018-06-23T14:06:09.656Z,6.67
2018-06-23T14:08:38.411Z,6.58
2018-06-23T14:11:06.737Z,7.22
2018-06-23T14:13:35.110Z,9.00
2018-06-23T14:16:03.212Z,8.75
2018-06-23T14:18:31.336Z,13.30
2018-06-23T14:20:59.488Z,8.95
2018-06-23T14:23:27.667Z,7.05
2018-06-23T14:25:55.779Z,13.62
2018-06-23T14:28:23.839Z,4.80
2018-06-23T14:30:51.907Z,7.37
2018-06-23T14:33:19.996Z,8.50
2018-06-23T14:35:48.056Z,8.85
2018-06-23T14:38:16.106Z,7.15
2018-06-23T14:40:44.235Z,7.92
2018-06-23T14:43:12.452Z,8.25
2018-06-23T14:45:40.740Z,4.87
2018-06-23T14:48:08.989Z,8.35
2018-06-23T14:50:37.220Z,9.28
2018-06-23T14:53:05.787Z,5.97
2018-06-23T14:55:33.978Z,10.90
2018-06-23T14:58:02.115Z,6.62
2018-06-23T15:00:30.199Z,5.92
2018-06-23T15:02:58.248Z,7.72
2018-06-23T15:05:26.305Z,5.58
2018-06-23T15:07:54.380Z,7.05
2018-06-23T15:10:33.982Z,6.05
2018-06-23T15:13:14.084Z,7.40
2018-06-23T15:15:42.207Z,5.78
2018-06-23T15:18:10.325Z,6.78
2018-06-23T15:20:38.704Z,6.55
2018-06-23T15:23:07.205Z,8.05
2018-06-23T15:25:35.708Z,13.08
2018-06-23T15:28:04.216Z,7.92
2018-06-23T15:30:32.387Z,7.62
2018-06-23T15:33:00.593Z,5.92
2018-06-23T15:35:28.736Z,7.15
2018-06-23T15:37:56.819Z,5.50
2018-06-23T15:40:24.959Z,7.70
2018-06-23T15:42:52.977Z,7.90
2018-06-23T15:45:21.079Z,7.53
2018-06-23T15:47:49.174Z,6.97
2018-06-23T15:50:17.497Z,8.68
2018-06-23T15:52:45.752Z,4.80
2018-06-23T15:55:13.977Z,9.08
2018-06-23T15:57:42.848Z,6.67
2018-06-23T16:00:11.153Z,6.47
2018-06-23T16:02:39.459Z,6.70
2018-06-23T16:05:07.804Z,5.25
2018-06-23T16:07:36.232Z,5.65
2018-06-23T16:10:06.403Z,8.68
2018-06-23T16:12:34.609Z,7.22
2018-06-23T16:15:02.901Z,6.62
2018-06-23T16:17:31.057Z,6.08
2018-06-23T16:19:59.204Z,7.20
2018-06-23T16:22:27.394Z,7.20
2018-06-23T16:24:55.475Z,4.67
2018-06-23T16:27:23.601Z,9.73
2018-06-23T16:29:51.844Z,7.80
2018-06-23T16:32:19.904Z,7.13
2018-06-23T16:34:48.333Z,10.18
2018-06-23T16:37:16.460Z,5.87
2018-06-23T16:39:44.557Z,5.05
2018-06-23T16:42:12.867Z,3.40
2018-06-23T16:44:41.209Z,3.83
2018-06-23T16:47:09.408Z,7.70
2018-06-23T16:49:38.221Z,4.27
2018-06-23T16:52:06.755Z,6.73
2018-06-23T16:54:35.612Z,6.17
2018-06-23T16:57:03.990Z,5.10
2018-06-23T16:59:32.308Z,10.83
2018-06-23T17:02:00.420Z,4.70
2018-06-23T17:04:28.505Z,4.67
2018-06-23T17:06:56.551Z,5.47
2018-06-23T17:09:24.955Z,6.13
2018-06-23T17:11:53.024Z,7.37
2018-06-23T17:14:21.108Z,5.90
2018-06-23T17:16:49.218Z,6.17
2018-06-23T17:19:17.350Z,7.80
2018-06-23T17:21:45.880Z,7.87
2018-06-23T17:24:13.951Z,5.27
2018-06-23T17:26:42.900Z,7.43
2018-06-23T17:29:10.987Z,6.47
2018-06-23T17:31:39.044Z,5.77
2018-06-23T17:34:07.142Z,6.77
2018-06-23T17:36:36.203Z,4.83
2018-06-23T17:39:06.304Z,7.03
2018-06-23T17:41:34.475Z,6.03
2018-06-23T17:44:02.558Z,5.93
2018-06-23T17:46:30.691Z,7.37
2018-06-23T17:48:58.915Z,6.57
2018-06-23T17:51:27.068Z,8.33
2018-06-23T17:53:55.191Z,10.30
2018-06-23T17:56:23.350Z,4.73
2018-06-23T17:58:51.405Z,8.97
2018-06-23T18:01:19.728Z,7.80
2018-06-23T18:03:47.791Z,4.17
2018-06-23T18:06:15.838Z,8.03
2018-06-23T18:08:44.130Z,7.87
2018-06-23T18:11:12.393Z,8.90
2018-06-23T18:13:40.551Z,5.10
2018-06-23T18:16:08.705Z,5.93
2018-06-23T18:18:36.810Z,7.13
2018-06-23T18:21:04.944Z,5.30
2018-06-23T18:23:32.986Z,6.30
2018-06-23T18:26:01.497Z,11.03
2018-06-23T18:28:29.642Z,4.20
2018-06-23T18:30:57.695Z,5.53
2018-06-23T18:33:25.785Z,4.40
2018-06-23T18:35:53.876Z,7.80
2018-06-23T18:38:21.942Z,8.87
2018-06-23T18:40:49.985Z,7.20
2018-06-23T18:43:18.066Z,5.77
2018-06-23T18:45:46.148Z,7.33
2018-06-23T18:48:14.293Z,11.20
2018-06-23T18:50:42.439Z,5.80
2018-06-23T18:53:10.676Z,5.93
2018-06-23T18:55:39.111Z,8.93
2018-06-23T18:58:07.295Z,5.93
2018-06-23T19:00:35.566Z,8.40
2018-06-23T19:03:03.890Z,9.10
2018-06-23T19:05:32.295Z,7.30
2018-06-23T19:08:00.443Z,5.50
2018-06-23T19:10:28.521Z,6.30
2018-06-23T19:12:56.634Z,8.50
2018-06-23T19:15:24.731Z,7.37
2018-06-23T19:17:52.778Z,8.87
2018-06-23T19:20:20.843Z,8.07
2018-06-23T19:22:48.892Z,7.23
2018-06-23T19:25:16.998Z,4.10
2018-06-23T19:27:45.063Z,8.43
2018-06-23T19:30:13.483Z,7.40
2018-06-23T19:32:41.522Z,7.50
2018-06-23T19:35:09.588Z,8.03
2018-06-23T19:37:37.760Z,4.93
2018-06-23T19:40:05.863Z,10.60
2018-06-23T19:42:33.939Z,10.07
2018-06-23T19:45:02.090Z,8.80
2018-06-23T19:47:30.179Z,6.33
2018-06-23T19:49:58.291Z,8.57
2018-06-23T19:52:26.619Z,6.73
2018-06-23T19:54:54.768Z,7.70
2018-06-23T19:57:22.801Z,6.40
2018-06-23T19:59:50.867Z,5.37
2018-06-23T20:02:18.915Z,9.07
2018-06-23T20:04:46.958Z,6.20
2018-06-23T20:07:15.122Z,12.83
2018-06-23T20:09:43.261Z,8.93
2018-06-23T20:12:11.384Z,10.63
2018-06-23T20:14:39.860Z,6.20
2018-06-23T20:17:08.035Z,9.50
2018-06-23T20:19:36.381Z,10.70
2018-06-23T20:22:04.804Z,7.37
2018-06-23T20:24:32.951Z,6.97
2018-06-23T20:27:01.041Z,7.00
2018-06-23T20:29:29.103Z,5.93
2018-06-23T20:31:57.159Z,6.40
2018-06-23T20:34:25.231Z,8.83
2018-06-23T20:36:53.283Z,7.27
2018-06-23T20:39:21.372Z,7.23
2018-06-23T20:41:49.428Z,7.63
2018-06-23T20:44:17.483Z,5.23
2018-06-23T20:46:45.656Z,9.27
2018-06-23T20:49:13.731Z,6.70
2018-06-23T20:51:41.951Z,5.50
2018-06-23T20:54:10.107Z,5.90
2018-06-23T20:56:38.300Z,6.30
2018-06-23T20:59:06.640Z,8.17
2018-06-23T21:01:34.818Z,9.53
2018-06-23T21:04:02.928Z,7.73
2018-06-23T21:06:30.983Z,6.43
2018-06-23T21:08:59.064Z,7.80
2018-06-23T21:11:27.160Z,9.70
2018-06-23T21:13:55.361Z,5.63
2018-06-23T21:16:23.354Z,7.47
2018-06-23T21:18:51.415Z,6.57
2018-06-23T21:21:19.493Z,5.50
2018-06-23T21:23:47.692Z,8.17
2018-06-23T21:26:15.771Z,5.10
2018-06-23T21:28:43.973Z,11.30
2018-06-23T21:31:12.085Z,8.93
2018-06-23T21:33:40.142Z,8.60
2018-06-23T21:36:08.519Z,12.53
2018-06-23T21:38:36.723Z,6.83
2018-06-23T21:41:04.904Z,7.70
2018-06-23T21:43:32.988Z,5.90
2018-06-23T21:46:01.035Z,4.80
2018-06-23T21:48:29.200Z,6.53
2018-06-23T21:50:57.274Z,6.70
2018-06-23T21:53:25.627Z,6.77
2018-06-23T21:55:53.693Z,7.03
2018-06-23T21:58:21.758Z,6.10
2018-06-23T22:00:49.860Z,8.83
2018-06-23T22:03:17.935Z,8.57
2018-06-23T22:05:46.051Z,5.27
2018-06-23T22:08:14.163Z,8.53
2018-06-23T22:10:42.527Z,5.97
2018-06-23T22:13:10.704Z,7.87
2018-06-23T22:15:38.885Z,6.70
2018-06-23T22:18:07.100Z,6.57
2018-06-23T22:20:35.333Z,7.87
2018-06-23T22:23:03.535Z,10.30
2018-06-23T22:25:31.628Z,5.63
2018-06-23T22:27:59.777Z,6.33
2018-06-23T22:30:27.892Z,6.00
2018-06-23T22:32:55.975Z,8.03
2018-06-23T22:35:24.116Z,5.97
2018-06-23T22:37:52.199Z,10.03
2018-06-23T22:40:20.435Z,8.10
2018-06-23T22:42:48.493Z,7.13
2018-06-23T22:45:16.563Z,8.27
2018-06-23T22:47:44.675Z,9.60
2018-06-23T22:50:12.756Z,5.37
2018-06-23T22:52:41.354Z,6.10
2018-06-23T22:55:10.606Z,9.63
2018-06-23T22:57:39.021Z,7.30
2018-06-23T23:00:10.953Z,8.57
2018-06-23T23:02:39.111Z,7.20
2018-06-23T23:05:07.467Z,8.63
2018-06-23T23:07:35.684Z,5.47
2018-06-23T23:10:04.081Z,10.40
2018-06-23T23:12:32.132Z,5.97
2018-06-23T23:15:00.453Z,7.43
2018-06-23T23:17:28.792Z,6.77
2018-06-23T23:19:56.885Z,4.30
2018-06-23T23:22:24.975Z,6.23
2018-06-23T23:24:53.281Z,6.80
2018-06-23T23:27:21.356Z,8.30
2018-06-23T23:29:49.435Z,6.00
2018-06-23T23:32:17.475Z,9.07
2018-06-23T23:34:45.535Z,7.27
2018-06-23T23:37:13.727Z,7.23
2018-06-23T23:39:41.967Z,4.77
2018-06-23T23:42:10.164Z,6.00
2018-06-23T23:44:38.351Z,5.43
2018-06-23T23:47:07.128Z,6.27
2018-06-23T23:49:35.404Z,7.97
2018-06-23T23:52:04.127Z,12.27
2018-06-23T23:54:32.232Z,12.40
2018-06-23T23:57:00.407Z,11.80
2018-06-23T23:59:28.463Z,10.13
